Time;durP1;ratioP1;P1;durP2;ratioP2;P2;SDS_P1;SDS_P2;PMS_P1;PMS_P2;Temp;Humidity;BMP_temperature;BMP_pressure;BME280_temperature;BME280_humidity;BME280_pressure;Samples;Min_cycle;Max_cycle;Signal;HPM_P1;HPM_P2
2021/06/18 00:00:25;;;;;;;3.10;2.80;;;27.30;57.30;;;;;;5012605;28;20109;-60
2021/06/18 00:02:50;;;;;;;2.90;2.58;;;27.30;57.30;;;;;;5012972;28;20022;-60
2021/06/18 00:05:16;;;;;;;5.80;3.38;;;27.30;57.40;;;;;;5012514;28;20053;-60
2021/06/18 00:07:44;;;;;;;4.50;3.05;;;27.30;57.30;;;;;;5011314;28;20037;-60
2021/06/18 00:10:11;;;;;;;4.10;2.88;;;27.40;57.40;;;;;;5011346;28;20021;-60
2021/06/18 00:12:36;;;;;;;2.80;2.58;;;27.30;57.30;;;;;;5012394;28;20033;-60
2021/06/18 00:15:04;;;;;;;3.03;2.70;;;27.30;57.40;;;;;;5012872;28;20084;-60
2021/06/18 00:17:30;;;;;;;3.10;2.80;;;27.30;57.30;;;;;;5012795;28;20030;-61
2021/06/18 00:19:56;;;;;;;2.75;2.40;;;27.30;57.40;;;;;;5012421;28;20121;-60
2021/06/18 00:22:21;;;;;;;3.15;2.75;;;27.30;57.30;;;;;;5012526;28;20085;-60
2021/06/18 00:24:47;;;;;;;3.00;2.55;;;27.30;57.30;;;;;;5012441;28;20041;-60
2021/06/18 00:27:13;;;;;;;3.20;2.90;;;27.60;57.50;;;;;;5011229;28;20028;-61
2021/06/18 00:29:38;;;;;;;4.03;2.83;;;27.30;57.30;;;;;;5011556;28;20026;-61
2021/06/18 00:32:04;;;;;;;3.03;2.80;;;27.30;57.40;;;;;;5012423;28;20112;-60
2021/06/18 00:34:30;;;;;;;3.80;3.10;;;27.30;57.40;;;;;;5012698;28;20032;-61
2021/06/18 00:36:55;;;;;;;4.20;3.10;;;27.30;57.30;;;;;;5012837;28;20457;-60
2021/06/18 00:39:21;;;;;;;3.28;2.97;;;27.30;57.30;;;;;;5014742;28;20022;-61
2021/06/18 00:41:48;;;;;;;3.38;2.78;;;27.30;57.30;;;;;;5015997;28;20488;-61
2021/06/18 00:44:14;;;;;;;2.83;2.60;;;27.30;57.30;;;;;;5014684;28;20223;-61
2021/06/18 00:46:39;;;;;;;3.05;2.53;;;27.20;57.20;;;;;;4998394;28;20108;-61
2021/06/18 00:49:07;;;;;;;4.47;2.65;;;27.30;57.30;;;;;;5016049;28;20382;-60
2021/06/18 00:51:33;;;;;;;2.70;2.50;;;27.20;57.20;;;;;;5015800;28;20061;-61
2021/06/18 00:53:59;;;;;;;2.65;2.45;;;27.60;57.50;;;;;;5014474;28;20499;-60
2021/06/18 00:56:25;;;;;;;2.97;2.67;;;27.10;57.20;;;;;;5015910;28;20022;-60
2021/06/18 00:58:51;;;;;;;2.75;2.55;;;27.20;57.30;;;;;;5015891;28;20084;-60
2021/06/18 01:01:17;;;;;;;2.63;2.42;;;27.30;57.30;;;;;;5015643;28;20473;-60
2021/06/18 01:03:43;;;;;;;3.88;2.58;;;27.20;57.20;;;;;;5015785;28;20018;-60
2021/06/18 01:06:12;;;;;;;2.95;2.55;;;27.30;57.30;;;;;;5015339;28;20497;-60
2021/06/18 01:08:44;;;;;;;3.80;2.95;;;27.20;57.30;;;;;;5015872;28;20030;-62
2021/06/18 01:11:22;;;;;;;3.20;2.42;;;27.30;57.30;;;;;;5015564;28;20477;-60
2021/06/18 01:14:09;;;;;;;3.33;2.80;;;27.30;57.30;;;;;;5015485;28;20545;-60
2021/06/18 01:16:39;;;;;;;3.90;2.85;;;27.20;57.30;;;;;;5015722;28;20025;-60
2021/06/18 01:19:14;;;;;;;3.45;2.67;;;27.20;57.30;;;;;;5015653;28;20026;-60
2021/06/18 01:21:43;;;;;;;2.97;2.67;;;27.20;57.30;;;;;;5015427;28;20477;-60
2021/06/18 01:24:27;;;;;;;3.03;2.55;;;27.20;57.30;;;;;;5015519;28;20109;-60
2021/06/18 01:27:31;;;;;;;3.40;3.00;;;27.20;57.20;;;;;;5015242;28;20459;-60
2021/06/18 01:30:20;;;;;;;3.20;2.42;;;27.20;57.30;;;;;;4984024;28;20037;-60
2021/06/18 01:33:04;;;;;;;2.65;2.45;;;27.20;57.30;;;;;;5015265;28;20187;-60
2021/06/18 01:35:35;;;;;;;3.58;2.67;;;27.20;57.30;;;;;;5015052;28;20152;-60
2021/06/18 01:38:03;;;;;;;3.55;2.80;;;27.20;57.30;;;;;;5014946;28;20113;-60
2021/06/18 01:40:29;;;;;;;3.88;2.58;;;27.20;57.30;;;;;;5015181;28;20022;-60
2021/06/18 01:42:57;;;;;;;2.65;2.45;;;27.10;57.20;;;;;;5013632;28;20111;-60
2021/06/18 01:45:26;;;;;;;2.90;2.20;;;27.10;57.20;;;;;;5013530;28;20018;-60
2021/06/18 01:47:55;;;;;;;2.83;2.53;;;27.20;57.40;;;;;;5013036;28;20468;-60
2021/06/18 01:50:22;;;;;;;2.60;2.40;;;27.10;57.40;;;;;;5014699;28;20022;-60
2021/06/18 01:52:53;;;;;;;2.72;2.50;;;27.10;57.30;;;;;;5014982;28;20037;-60
2021/06/18 01:55:22;;;;;;;2.95;2.45;;;27.10;57.30;;;;;;5014572;28;20026;-60
2021/06/18 01:57:52;;;;;;;2.60;2.40;;;27.10;57.30;;;;;;5014883;28;20033;-60
2021/06/18 02:00:19;;;;;;;3.25;2.75;;;27.20;57.40;;;;;;5014577;28;20097;-61
2021/06/18 02:02:46;;;;;;;3.47;2.53;;;27.10;57.40;;;;;;5013046;28;20432;-61
2021/06/18 02:05:13;;;;;;;3.53;2.42;;;27.10;57.40;;;;;;5014290;28;20076;-60
2021/06/18 02:07:41;;;;;;;2.92;2.60;;;27.10;57.40;;;;;;5014398;28;20034;-60
2021/06/18 02:10:09;;;;;;;2.85;2.30;;;27.20;57.50;;;;;;5014394;28;20449;-60
2021/06/18 02:12:36;;;;;;;2.75;2.50;;;27.10;57.40;;;;;;5014535;28;20037;-60
2021/06/18 02:15:07;;;;;;;2.88;2.25;;;27.10;57.40;;;;;;5014609;28;20026;-60
2021/06/18 02:17:34;;;;;;;2.78;2.15;;;27.10;57.40;;;;;;5014576;28;20018;-60
2021/06/18 02:20:04;;;;;;;2.85;2.30;;;27.20;57.50;;;;;;5014291;28;20033;-60
2021/06/18 02:22:30;;;;;;;3.58;2.28;;;27.10;57.40;;;;;;5014160;28;20479;-60
2021/06/18 02:24:57;;;;;;;2.55;2.30;;;27.10;57.50;;;;;;5014065;28;20389;-60
2021/06/18 02:27:23;;;;;;;2.25;2.05;;;27.10;57.40;;;;;;4996756;28;20022;-60
2021/06/18 02:29:49;;;;;;;3.78;2.75;;;27.10;57.40;;;;;;5013993;28;20112;-60
2021/06/18 02:32:16;;;;;;;2.80;2.47;;;27.20;57.60;;;;;;5014201;28;20120;-60
2021/06/18 02:34:42;;;;;;;2.53;2.30;;;27.10;57.50;;;;;;5014246;28;20014;-60
2021/06/18 02:37:10;;;;;;;2.70;2.38;;;27.20;57.60;;;;;;5014005;28;20034;-60
2021/06/18 02:39:36;;;;;;;2.30;2.10;;;27.10;57.50;;;;;;5014057;28;20029;-61
2021/06/18 02:42:01;;;;;;;3.72;2.90;;;27.10;57.60;;;;;;5013882;28;20017;-60
2021/06/18 02:44:27;;;;;;;4.32;2.55;;;27.00;57.50;;;;;;5014078;28;20104;-61
2021/06/18 02:47:21;;;;;;;3.75;2.75;;;27.60;58.00;;;;;;5014018;28;20022;-62
2021/06/18 02:50:36;;;;;;;2.88;2.30;;;27.00;57.80;;;;;;5014186;28;20025;-60
2021/06/18 02:53:35;;;;;;;4.45;2.60;;;27.00;57.80;;;;;;4972365;28;20039;-60
2021/06/18 02:56:13;;;;;;;2.80;2.53;;;27.00;57.50;;;;;;4996355;28;20125;-60
2021/06/18 02:58:52;;;;;;;3.35;2.20;;;27.10;57.70;;;;;;5013853;28;20033;-61
2021/06/18 03:01:23;;;;;;;4.20;2.60;;;27.10;57.70;;;;;;5012792;28;20080;-60
2021/06/18 03:03:53;;;;;;;2.50;2.03;;;27.10;57.70;;;;;;5013802;28;20119;-61
2021/06/18 03:06:20;;;;;;;3.58;2.50;;;27.00;57.60;;;;;;5013305;28;20123;-61
2021/06/18 03:08:50;;;;;;;3.72;2.40;;;27.00;57.60;;;;;;5012446;28;20037;-61
2021/06/18 03:11:19;;;;;;;3.55;2.67;;;27.10;57.70;;;;;;5013488;28;20026;-61
2021/06/18 03:13:48;;;;;;;3.00;2.20;;;27.00;57.70;;;;;;5012068;28;20042;-61
2021/06/18 03:16:14;;;;;;;3.50;2.67;;;27.00;57.70;;;;;;5013480;28;20033;-61
2021/06/18 03:18:45;;;;;;;3.03;2.33;;;27.00;57.70;;;;;;5013126;28;20032;-61
2021/06/18 03:21:13;;;;;;;4.32;2.42;;;27.00;57.70;;;;;;5013739;28;20037;-61
2021/06/18 03:23:40;;;;;;;3.83;2.47;;;27.00;57.70;;;;;;5013270;28;20048;-61
2021/06/18 03:26:07;;;;;;;3.15;2.60;;;27.00;57.90;;;;;;5013493;28;20053;-62
2021/06/18 03:28:34;;;;;;;3.88;2.72;;;27.10;57.90;;;;;;5013220;28;20026;-62
2021/06/18 03:31:07;;;;;;;3.50;2.45;;;27.00;57.90;;;;;;5013107;28;20099;-61
2021/06/18 03:33:33;;;;;;;3.40;2.50;;;27.00;57.90;;;;;;5013011;28;20061;-61
2021/06/18 03:36:00;;;;;;;2.88;2.65;;;27.00;57.90;;;;;;5012947;28;20058;-61
2021/06/18 03:38:26;;;;;;;2.90;2.60;;;27.00;57.90;;;;;;5013099;28;20014;-61
2021/06/18 03:40:52;;;;;;;2.65;2.45;;;27.00;57.90;;;;;;5013252;28;20424;-61
2021/06/18 03:43:17;;;;;;;2.92;2.72;;;26.90;57.80;;;;;;5012929;28;20047;-61
2021/06/18 03:45:46;;;;;;;4.40;3.03;;;27.00;57.90;;;;;;5013162;28;20022;-61
2021/06/18 03:48:13;;;;;;;2.63;2.42;;;26.90;57.90;;;;;;5012974;28;20134;-61
2021/06/18 03:50:39;;;;;;;3.15;2.65;;;26.90;57.90;;;;;;5011567;28;20050;-62
2021/06/18 03:53:07;;;;;;;3.50;2.67;;;27.00;58.00;;;;;;5012785;28;20076;-61
2021/06/18 03:55:33;;;;;;;3.03;2.53;;;27.00;58.00;;;;;;5012887;28;20014;-62
2021/06/18 03:58:00;;;;;;;4.97;2.83;;;26.90;58.00;;;;;;5012628;28;20116;-61
2021/06/18 04:00:27;;;;;;;4.63;2.92;;;26.90;58.00;;;;;;5012851;28;20134;-61
2021/06/18 04:02:53;;;;;;;3.83;3.10;;;26.90;58.00;;;;;;5012855;28;20030;-61
2021/06/18 04:05:22;;;;;;;3.90;2.75;;;27.00;58.20;;;;;;5012602;28;20049;-61
2021/06/18 04:07:50;;;;;;;4.40;3.20;;;26.90;58.10;;;;;;5011542;28;20550;-61
2021/06/18 04:10:17;;;;;;;3.13;2.83;;;26.90;58.10;;;;;;5012971;28;20026;-62
2021/06/18 04:12:45;;;;;;;4.25;3.42;;;26.90;58.20;;;;;;5015889;28;20487;-61
2021/06/18 04:15:11;;;;;;;5.28;2.80;;;26.90;58.20;;;;;;5016617;28;20358;-61
2021/06/18 04:17:40;;;;;;;3.20;2.88;;;26.90;58.20;;;;;;5016733;28;20026;-62
2021/06/18 04:20:07;;;;;;;5.10;2.92;;;27.00;58.40;;;;;;5016414;28;20032;-61
2021/06/18 04:22:33;;;;;;;3.13;2.70;;;26.90;58.40;;;;;;5016676;28;20017;-61
2021/06/18 04:24:58;;;;;;;3.70;2.83;;;26.90;58.40;;;;;;5016260;28;20481;-61
2021/06/18 04:27:25;;;;;;;3.10;2.75;;;26.90;58.50;;;;;;5015113;28;20057;-61
2021/06/18 04:29:51;;;;;;;4.43;3.35;;;27.00;58.60;;;;;;5016616;28;20180;-61
2021/06/18 04:32:17;;;;;;;3.83;3.42;;;26.90;58.60;;;;;;5016059;28;20026;-61
2021/06/18 04:34:43;;;;;;;4.35;3.05;;;26.90;58.40;;;;;;5016286;28;20096;-61
2021/06/18 04:37:08;;;;;;;5.80;3.28;;;26.90;58.40;;;;;;5016238;28;20485;-61
2021/06/18 04:39:34;;;;;;;3.17;2.88;;;27.00;58.50;;;;;;5015949;28;20099;-61
2021/06/18 04:42:01;;;;;;;4.97;2.85;;;26.90;58.50;;;;;;5016246;28;20029;-61
2021/06/18 04:44:27;;;;;;;3.03;2.60;;;26.90;58.50;;;;;;5014675;28;20109;-61
2021/06/18 04:46:53;;;;;;;3.88;2.88;;;26.90;58.50;;;;;;5015978;28;20458;-61
2021/06/18 04:49:19;;;;;;;3.28;2.75;;;26.90;58.50;;;;;;5016014;28;20096;-61
2021/06/18 04:51:45;;;;;;;4.97;2.90;;;27.00;58.60;;;;;;5015930;28;20018;-61
2021/06/18 04:54:11;;;;;;;3.33;2.75;;;26.80;58.40;;;;;;5015763;28;20103;-60
2021/06/18 04:56:40;;;;;;;2.80;2.53;;;26.80;58.40;;;;;;5016026;28;20171;-61
2021/06/18 04:59:06;;;;;;;3.75;2.78;;;26.90;58.50;;;;;;5015665;28;20041;-61
2021/06/18 05:01:32;;;;;;;3.53;2.90;;;26.90;58.50;;;;;;5015617;28;20409;-61
2021/06/18 05:03:58;;;;;;;2.72;2.50;;;26.80;58.50;;;;;;5015850;28;20034;-61
2021/06/18 05:06:23;;;;;;;3.05;2.15;;;26.80;58.50;;;;;;5015356;28;20049;-60
2021/06/18 05:08:50;;;;;;;3.22;2.70;;;26.90;58.50;;;;;;5015704;28;20030;-60
2021/06/18 05:11:16;;;;;;;2.83;2.63;;;26.80;58.50;;;;;;5015394;28;20080;-61
2021/06/18 05:13:42;;;;;;;2.90;2.70;;;26.80;58.60;;;;;;5015298;28;20033;-60
2021/06/18 05:16:07;;;;;;;5.13;3.30;;;26.90;58.80;;;;;;5015345;28;20032;-60
2021/06/18 05:18:34;;;;;;;3.33;3.03;;;26.80;58.60;;;;;;5015610;28;20028;-59
2021/06/18 05:20:59;;;;;;;3.45;2.80;;;26.80;58.60;;;;;;5015225;28;20496;-61
2021/06/18 05:23:25;;;;;;;3.67;2.88;;;27.30;59.40;;;;;;5014642;28;20064;-60
2021/06/18 05:25:53;;;;;;;2.88;2.53;;;26.80;59.40;;;;;;5015254;28;20380;-60
2021/06/18 05:28:18;;;;;;;3.28;2.70;;;26.80;59.60;;;;;;5015104;28;20025;-61
2021/06/18 05:30:44;;;;;;;4.07;2.60;;;26.80;59.60;;;;;;5015043;28;20030;-61
2021/06/18 05:33:09;;;;;;;5.85;4.13;;;26.70;59.70;;;;;;5015071;28;20112;-61
2021/06/18 05:35:35;;;;;;;5.47;4.97;;;26.70;60.20;;;;;;5015197;28;20021;-61
2021/06/18 05:38:01;;;;;;;6.00;5.40;;;26.80;60.80;;;;;;5015301;28;20022;-62
2021/06/18 05:40:26;;;;;;;6.65;4.82;;;26.80;61.10;;;;;;5015172;28;20025;-62
2021/06/18 05:42:52;;;;;;;5.70;4.95;;;26.70;61.10;;;;;;5013691;28;20619;-62
2021/06/18 05:45:18;;;;;;;6.47;5.05;;;26.70;61.40;;;;;;5014878;28;20089;-61
2021/06/18 05:47:43;;;;;;;7.60;3.97;;;26.60;61.50;;;;;;5014616;28;20022;-60
2021/06/18 05:50:10;;;;;;;5.30;3.90;;;26.60;60.90;;;;;;5014948;28;20069;-61
2021/06/18 05:52:35;;;;;;;6.40;4.05;;;26.60;61.20;;;;;;5014477;28;20511;-61
2021/06/18 05:55:01;;;;;;;6.35;5.05;;;26.60;61.70;;;;;;5014831;28;20065;-60
2021/06/18 05:57:27;;;;;;;7.60;5.00;;;26.70;62.10;;;;;;5014868;28;20018;-61
2021/06/18 05:59:53;;;;;;;7.93;6.22;;;26.60;62.00;;;;;;5014452;28;20030;-61
2021/06/18 06:02:19;;;;;;;9.15;6.35;;;26.60;62.40;;;;;;5014688;28;20024;-60
2021/06/18 06:04:44;;;;;;;8.18;5.78;;;27.00;62.70;;;;;;5014371;28;20042;-60
2021/06/18 06:07:10;;;;;;;8.10;7.00;;;26.60;62.60;;;;;;5014429;28;20488;-60
2021/06/18 06:09:35;;;;;;;8.93;6.47;;;26.90;62.90;;;;;;5014388;28;20028;-60
2021/06/18 06:12:01;;;;;;;8.55;6.75;;;26.50;62.80;;;;;;5013058;28;20025;-60
2021/06/18 06:14:27;;;;;;;8.90;6.15;;;26.50;62.90;;;;;;5014615;28;20029;-61
2021/06/18 06:16:52;;;;;;;7.57;6.78;;;26.60;63.00;;;;;;5014269;28;20109;-61
2021/06/18 06:19:18;;;;;;;7.30;6.57;;;26.50;63.00;;;;;;5014509;28;20025;-61
2021/06/18 06:21:44;;;;;;;7.15;6.38;;;26.50;63.00;;;;;;5013284;28;20076;-61
2021/06/18 06:24:12;;;;;;;7.18;5.88;;;26.60;63.20;;;;;;5012739;28;20477;-61
2021/06/18 06:26:38;;;;;;;9.02;5.85;;;26.60;63.20;;;;;;5014045;28;20473;-60
2021/06/18 06:29:04;;;;;;;9.32;6.05;;;26.50;63.20;;;;;;5014228;28;20105;-60
2021/06/18 06:31:29;;;;;;;10.63;6.18;;;26.50;63.20;;;;;;5012544;28;20057;-60
2021/06/18 06:33:55;;;;;;;8.35;6.28;;;26.50;63.40;;;;;;5011980;28;20038;-60
2021/06/18 06:36:21;;;;;;;9.63;6.32;;;26.50;64.00;;;;;;5010479;28;20429;-60
2021/06/18 06:38:46;;;;;;;6.85;5.78;;;26.60;63.50;;;;;;5013931;28;20033;-60
2021/06/18 06:41:12;;;;;;;8.90;6.38;;;26.60;63.60;;;;;;5013747;28;20492;-60
2021/06/18 06:43:38;;;;;;;9.00;6.30;;;26.60;64.30;;;;;;5013633;28;20535;-60
2021/06/18 06:46:04;;;;;;;9.93;7.05;;;26.40;63.70;;;;;;5013309;28;20029;-61
2021/06/18 06:48:30;;;;;;;9.55;7.80;;;26.60;63.80;;;;;;5013604;28;20076;-60
2021/06/18 06:50:56;;;;;;;11.32;7.20;;;26.50;63.90;;;;;;5012348;28;20022;-60
2021/06/18 06:53:22;;;;;;;9.05;7.40;;;27.10;64.40;;;;;;5013329;28;20503;-60
2021/06/18 06:55:47;;;;;;;8.85;7.72;;;26.60;64.10;;;;;;5013421;28;20033;-60
2021/06/18 06:58:13;;;;;;;9.05;7.63;;;26.90;64.30;;;;;;5013349;28;20030;-60
2021/06/18 07:00:39;;;;;;;9.25;7.70;;;25.80;63.60;;;;;;5012142;28;20018;-60
2021/06/18 07:03:04;;;;;;;9.98;7.38;;;26.50;64.00;;;;;;5013648;28;20083;-61
2021/06/18 07:05:30;;;;;;;11.70;7.45;;;26.40;63.90;;;;;;5012032;28;20049;-60
2021/06/18 07:07:55;;;;;;;11.93;7.90;;;26.10;63.70;;;;;;5013330;28;20021;-59
2021/06/18 07:10:21;;;;;;;11.80;7.07;;;26.50;64.10;;;;;;5013352;28;20105;-60
2021/06/18 07:12:47;;;;;;;9.25;6.60;;;26.50;64.40;;;;;;5013231;28;20025;-61
2021/06/18 07:15:13;;;;;;;11.27;6.70;;;26.70;64.70;;;;;;5012092;28;20026;-60
2021/06/18 07:17:38;;;;;;;7.90;6.63;;;26.40;64.40;;;;;;5013522;28;20025;-60
2021/06/18 07:20:05;;;;;;;11.80;7.80;;;26.50;65.40;;;;;;5013152;28;20389;-60
2021/06/18 07:22:30;;;;;;;9.82;8.10;;;26.30;64.70;;;;;;5011953;28;20026;-60
2021/06/18 07:24:58;;;;;;;8.30;7.50;;;26.80;65.70;;;;;;5012980;28;20018;-60
2021/06/18 07:27:24;;;;;;;9.60;7.18;;;26.60;65.70;;;;;;5013168;28;20476;-60
2021/06/18 07:29:52;;;;;;;9.65;7.57;;;26.60;66.40;;;;;;5012947;28;20476;-59
2021/06/18 07:32:18;;;;;;;13.18;7.68;;;26.30;66.30;;;;;;5013367;28;20030;-60
2021/06/18 07:34:43;;;;;;;8.20;6.82;;;26.30;66.80;;;;;;5011924;28;20033;-60
2021/06/18 07:37:09;;;;;;;9.65;6.78;;;26.30;67.30;;;;;;5013249;28;20024;-60
2021/06/18 07:39:35;;;;;;;7.15;6.10;;;26.50;67.80;;;;;;5013230;28;20026;-60
2021/06/18 07:42:00;;;;;;;8.35;6.13;;;26.50;67.90;;;;;;5011746;28;20022;-60
2021/06/18 07:44:26;;;;;;;9.30;6.13;;;26.30;68.10;;;;;;5012810;28;20040;-60
2021/06/18 07:46:52;;;;;;;9.25;5.93;;;26.20;92.20;;;;;;5012439;28;20025;-59
2021/06/18 07:49:17;;;;;;;7.18;5.57;;;26.70;69.50;;;;;;5013242;28;20033;-60
2021/06/18 07:51:43;;;;;;;6.60;5.28;;;26.40;69.50;;;;;;5013017;28;20014;-60
2021/06/18 07:54:09;;;;;;;6.75;4.80;;;26.70;70.90;;;;;;5012973;28;20384;-59
2021/06/18 07:56:40;;;;;;;6.00;5.20;;;26.50;73.10;;;;;;5013043;28;20537;-60
2021/06/18 07:59:06;;;;;;;4.93;4.35;;;26.30;64.60;;;;;;5012992;28;20100;-60
2021/06/18 08:01:31;;;;;;;6.53;4.57;;;26.60;65.50;;;;;;5013004;28;20457;-60
2021/06/18 08:03:57;;;;;;;7.03;4.85;;;26.60;65.40;;;;;;5012671;28;20030;-60
2021/06/18 08:06:22;;;;;;;5.88;4.13;;;26.30;65.80;;;;;;5012457;28;20091;-60
2021/06/18 08:08:48;;;;;;;12.13;4.80;;;26.30;65.20;;;;;;5012696;28;20032;-60
2021/06/18 08:11:14;;;;;;;5.63;4.20;;;26.40;65.20;;;;;;5011666;28;20108;-60
2021/06/18 08:13:40;;;;;;;6.68;3.95;;;26.30;65.40;;;;;;5012648;28;20477;-60
2021/06/18 08:16:06;;;;;;;6.72;4.40;;;26.40;65.60;;;;;;5012742;28;20026;-59
2021/06/18 08:18:35;;;;;;;5.45;4.65;;;26.40;65.90;;;;;;5012622;28;20115;-60
2021/06/18 08:21:03;;;;;;;6.93;4.38;;;26.40;65.90;;;;;;5012770;28;20022;-60
2021/06/18 08:23:29;;;;;;;6.68;4.78;;;26.40;66.00;;;;;;5012453;28;20030;-60
2021/06/18 08:25:54;;;;;;;7.22;4.78;;;26.50;66.20;;;;;;5012456;28;20034;-60
2021/06/18 08:28:20;;;;;;;9.82;5.55;;;26.40;66.30;;;;;;5012841;28;20022;-60
2021/06/18 08:30:46;;;;;;;6.57;4.63;;;26.50;66.30;;;;;;5012450;28;20503;-60
2021/06/18 08:33:11;;;;;;;7.45;4.95;;;26.40;66.20;;;;;;5012343;28;20044;-60
2021/06/18 08:35:37;;;;;;;9.00;4.43;;;26.40;66.20;;;;;;5012339;28;20056;-60
2021/06/18 08:38:03;;;;;;;7.07;4.40;;;26.40;66.20;;;;;;5010965;28;20032;-60
2021/06/18 08:40:30;;;;;;;3.78;3.25;;;26.50;66.10;;;;;;5012651;28;20057;-60
2021/06/18 08:42:57;;;;;;;4.22;3.45;;;26.50;66.10;;;;;;5012321;28;20053;-60
2021/06/18 08:45:22;;;;;;;5.90;3.47;;;26.50;66.10;;;;;;5012645;28;20026;-60
2021/06/18 08:47:51;;;;;;;4.60;3.45;;;26.50;66.20;;;;;;5012275;28;20026;-60
2021/06/18 08:50:24;;;;;;;4.47;3.40;;;26.50;66.30;;;;;;5012432;28;20144;-59
2021/06/18 08:53:00;;;;;;;4.50;3.30;;;26.50;66.30;;;;;;5012515;28;20029;-60
2021/06/18 08:55:31;;;;;;;3.90;2.97;;;26.50;66.20;;;;;;5012142;28;20033;-59
2021/06/18 08:57:59;;;;;;;4.15;2.97;;;26.50;66.00;;;;;;5012710;28;20026;-59
2021/06/18 09:00:27;;;;;;;4.07;3.08;;;26.60;66.00;;;;;;5015932;28;20099;-60
2021/06/18 09:02:53;;;;;;;4.53;2.75;;;26.60;66.60;;;;;;5015733;28;20499;-60
2021/06/18 09:05:21;;;;;;;4.38;2.70;;;26.60;65.90;;;;;;5015377;28;20493;-60
2021/06/18 09:07:59;;;;;;;4.78;2.92;;;26.70;65.90;;;;;;5015563;28;20501;-60
2021/06/18 09:10:39;;;;;;;4.65;2.95;;;26.70;65.70;;;;;;5015584;28;20481;-60
2021/06/18 09:13:19;;;;;;;3.40;2.40;;;26.70;65.70;;;;;;5015682;28;20038;-60
2021/06/18 09:15:50;;;;;;;;;;;26.80;65.80;;;;;;5015964;28;20029;-60
2021/06/18 09:18:25;;;;;;;4.38;2.65;;;26.80;65.60;;;;;;5015740;28;19905;-60
2021/06/18 09:21:13;;;;;;;4.25;2.55;;;26.80;65.50;;;;;;5015471;28;20452;-60
2021/06/18 09:23:41;;;;;;;2.95;2.35;;;26.90;65.30;;;;;;5015624;28;20014;-60
2021/06/18 09:26:22;;;;;;;3.10;2.55;;;26.90;65.10;;;;;;5015422;28;20077;-60
2021/06/18 09:29:01;;;;;;;4.28;2.90;;;26.90;64.90;;;;;;5015132;28;20026;-60
2021/06/18 09:31:29;;;;;;;3.53;2.47;;;27.00;64.80;;;;;;5015454;28;20030;-60
2021/06/18 09:33:55;;;;;;;4.15;2.15;;;27.30;64.90;;;;;;5015239;28;20365;-60
2021/06/18 09:36:22;;;;;;;2.92;2.38;;;27.00;64.50;;;;;;5015094;28;20101;-60
2021/06/18 09:38:55;;;;;;;3.40;2.15;;;27.10;64.40;;;;;;5015048;28;20473;-60
2021/06/18 09:41:40;;;;;;;5.32;3.00;;;27.10;64.30;;;;;;5015309;28;20025;-60
2021/06/18 09:44:11;;;;;;;4.03;2.63;;;27.10;64.10;;;;;;5013714;28;20014;-60
2021/06/18 09:46:49;;;;;;;3.88;2.20;;;27.10;83.50;;;;;;5015273;28;20105;-60
2021/06/18 09:49:29;;;;;;;2.85;2.40;;;27.10;63.80;;;;;;5015085;28;20030;-60
2021/06/18 09:51:57;;;;;;;4.30;2.28;;;27.40;64.00;;;;;;5014687;28;20037;-60
2021/06/18 09:54:30;;;;;;;3.42;2.50;;;27.20;63.80;;;;;;5014964;28;20452;-61
2021/06/18 09:57:03;;;;;;;2.67;2.40;;;27.20;63.70;;;;;;5013476;28;20523;-60
2021/06/18 09:59:29;;;;;;;3.97;2.78;;;27.30;63.70;;;;;;5014674;28;20465;-60
2021/06/18 10:01:55;;;;;;;2.58;2.22;;;27.30;63.70;;;;;;5014485;28;20022;-60
2021/06/18 10:04:23;;;;;;;2.70;2.50;;;27.30;63.70;;;;;;5014274;28;20067;-60
2021/06/18 10:06:49;;;;;;;3.67;2.25;;;27.30;63.60;;;;;;5014847;28;20057;-60
2021/06/18 10:09:15;;;;;;;3.45;2.40;;;27.40;63.70;;;;;;5014384;28;20120;-60
2021/06/18 10:11:47;;;;;;;3.63;2.50;;;27.40;63.70;;;;;;5014368;28;20030;-60
2021/06/18 10:14:14;;;;;;;3.83;2.45;;;27.40;63.60;;;;;;5014568;28;20058;-61
2021/06/18 10:16:40;;;;;;;5.47;2.65;;;27.40;63.60;;;;;;5014541;28;20120;-61
2021/06/18 10:19:06;;;;;;;4.60;2.50;;;27.40;63.50;;;;;;5014552;28;20033;-61
2021/06/18 10:21:43;;;;;;;3.03;2.55;;;27.50;63.70;;;;;;5012748;28;20018;-61
2021/06/18 10:24:09;;;;;;;2.55;2.28;;;27.70;63.90;;;;;;5014127;28;20058;-61
2021/06/18 10:26:35;;;;;;;3.53;2.55;;;27.50;63.80;;;;;;5014346;28;20077;-61
2021/06/18 10:29:02;;;;;;;4.60;2.50;;;27.50;63.80;;;;;;5014268;28;20084;-61
2021/06/18 10:31:35;;;;;;;3.35;2.70;;;27.50;63.60;;;;;;5013948;28;20451;-61
2021/06/18 10:34:08;;;;;;;6.30;3.08;;;27.60;63.70;;;;;;5014065;28;20038;-61
2021/06/18 10:36:35;;;;;;;3.25;2.67;;;27.60;63.60;;;;;;5014003;28;20121;-61
2021/06/18 10:39:03;;;;;;;3.30;2.80;;;27.80;63.80;;;;;;5013849;28;20026;-61
2021/06/18 10:41:29;;;;;;;3.72;2.80;;;27.60;63.60;;;;;;5012542;28;20469;-61
2021/06/18 10:43:59;;;;;;;4.40;2.83;;;27.60;63.60;;;;;;5013745;28;20088;-61
2021/06/18 10:46:29;;;;;;;7.55;3.05;;;27.60;63.50;;;;;;5013978;28;20022;-61
2021/06/18 10:48:59;;;;;;;4.68;3.17;;;27.70;63.40;;;;;;5013879;28;20036;-60
2021/06/18 10:51:32;;;;;;;3.03;2.67;;;27.70;63.40;;;;;;5013977;28;20083;-60
2021/06/18 10:54:26;;;;;;;3.60;3.00;;;27.70;63.30;;;;;;5013647;28;20128;-60
2021/06/18 10:56:56;;;;;;;3.00;2.70;;;27.80;63.30;;;;;;5013653;28;20059;-60
2021/06/18 10:59:38;;;;;;;3.28;2.80;;;27.80;63.20;;;;;;5013611;28;20030;-61
2021/06/18 11:02:22;;;;;;;5.20;2.97;;;27.80;63.10;;;;;;5013880;28;20686;-60
2021/06/18 11:04:52;;;;;;;8.80;2.97;;;27.70;62.90;;;;;;5013494;28;20060;-60
2021/06/18 11:07:40;;;;;;;3.92;2.80;;;27.80;63.10;;;;;;5013577;28;20041;-60
2021/06/18 11:10:14;;;;;;;4.18;3.25;;;27.80;63.10;;;;;;5013537;28;20022;-60
2021/06/18 11:12:43;;;;;;;3.00;2.80;;;27.80;63.20;;;;;;5013536;28;20026;-60
2021/06/18 11:15:21;;;;;;;4.65;2.90;;;27.80;63.00;;;;;;5012104;28;20025;-60
2021/06/18 11:18:00;;;;;;;4.00;3.42;;;27.80;63.00;;;;;;5013290;28;20437;-59
2021/06/18 11:20:34;;;;;;;8.85;3.63;;;26.90;62.30;;;;;;5013057;28;20022;-60
2021/06/18 11:23:15;;;;;;;3.85;3.08;;;27.80;63.00;;;;;;5013144;28;20389;-60
2021/06/18 11:25:41;;;;;;;5.22;3.10;;;27.80;63.00;;;;;;5013670;28;20424;-60
2021/06/18 11:28:19;;;;;;;3.35;3.03;;;27.90;63.00;;;;;;5013378;28;20026;-60
2021/06/18 11:31:13;;;;;;;5.78;3.28;;;27.80;62.90;;;;;;5013080;28;20032;-60
2021/06/18 11:36:13;;;;;;;4.30;3.25;;;27.90;62.90;;;;;;5012823;28;20061;-60
2021/06/18 11:38:39;;;;;;;3.47;3.08;;;28.00;62.90;;;;;;5012952;28;20393;-60
2021/06/18 11:41:09;;;;;;;3.70;3.28;;;28.10;62.90;;;;;;5013100;28;20114;-60
2021/06/18 11:43:36;;;;;;;3.65;3.20;;;27.90;63.50;;;;;;5013238;28;20073;-60
2021/06/18 11:46:02;;;;;;;4.95;3.47;;;27.90;80.70;;;;;;5012818;28;20026;-60
2021/06/18 11:48:28;;;;;;;4.32;3.63;;;27.80;62.80;;;;;;5011952;28;20025;-60
2021/06/18 11:50:53;;;;;;;6.55;3.80;;;27.90;62.80;;;;;;5011628;28;20469;-60
2021/06/18 11:53:20;;;;;;;3.40;3.03;;;27.90;62.80;;;;;;5013012;28;20117;-60
2021/06/18 11:55:57;;;;;;;3.67;3.38;;;27.90;62.80;;;;;;5013003;28;20026;-60
2021/06/18 11:58:33;;;;;;;5.38;3.33;;;27.80;62.70;;;;;;5011711;28;20057;-60
2021/06/18 12:01:24;;;;;;;4.65;3.38;;;27.90;62.90;;;;;;5012811;28;20025;-61
2021/06/18 12:03:55;;;;;;;5.38;3.35;;;27.90;63.10;;;;;;5013023;28;20028;-61
2021/06/18 12:06:23;;;;;;;3.53;3.22;;;28.00;63.90;;;;;;5012826;28;20053;-62
2021/06/18 12:09:05;;;;;;;5.43;3.90;;;28.00;63.50;;;;;;5012846;28;20489;-61
2021/06/18 12:11:37;;;;;;;5.95;3.83;;;28.00;63.80;;;;;;5013259;28;20026;-61
2021/06/18 12:14:05;;;;;;;4.53;3.95;;;28.10;63.70;;;;;;5013378;28;20112;-61
2021/06/18 12:16:38;;;;;;;5.60;3.70;;;28.10;63.90;;;;;;5012859;28;20389;-61
2021/06/18 12:19:24;;;;;;;7.90;4.40;;;28.20;63.70;;;;;;5011882;28;20033;-61
2021/06/18 12:22:12;;;;;;;4.72;3.80;;;28.20;63.60;;;;;;5013076;28;20022;-61
2021/06/18 12:24:43;;;;;;;6.40;3.80;;;28.30;63.40;;;;;;5011348;28;20311;-62
2021/06/18 12:27:18;;;;;;;6.40;3.85;;;28.40;63.40;;;;;;5012608;28;20033;-62
2021/06/18 12:29:47;;;;;;;4.47;4.07;;;28.40;63.00;;;;;;5011849;28;20109;-62
2021/06/18 12:32:14;;;;;;;9.23;4.10;;;28.40;62.90;;;;;;5013233;28;20362;-61
2021/06/18 12:34:48;;;;;;;5.82;4.25;;;28.50;62.90;;;;;;5016517;28;20396;-60
2021/06/18 12:37:14;;;;;;;4.85;3.70;;;28.50;63.20;;;;;;5016429;28;20180;-61
2021/06/18 12:39:54;;;;;;;5.88;3.90;;;28.60;62.30;;;;;;5016689;28;20437;-61
2021/06/18 12:42:22;;;;;;;6.30;4.03;;;28.60;62.10;;;;;;5015212;28;20057;-60
2021/06/18 12:45:01;;;;;;;6.25;4.10;;;28.60;62.50;;;;;;5016494;28;20026;-60
2021/06/18 12:47:27;;;;;;;4.95;3.95;;;28.70;62.00;;;;;;5016347;28;20018;-61
2021/06/18 12:49:52;;;;;;;4.32;3.90;;;28.80;62.60;;;;;;5016052;28;20080;-61
2021/06/18 12:52:18;;;;;;;4.88;4.40;;;28.70;61.90;;;;;;5016003;28;20458;-61
2021/06/18 12:54:43;;;;;;;7.88;4.53;;;28.80;61.50;;;;;;5015991;28;20057;-61
2021/06/18 12:57:27;;;;;;;6.57;4.30;;;28.80;61.10;;;;;;5016248;28;20462;-60
2021/06/18 13:00:10;;;;;;;8.68;3.92;;;28.90;61.10;;;;;;4998401;28;20117;-60